Time;durP1;ratioP1;P1;durP2;ratioP2;P2;SDS_P1;SDS_P2;PMS_P1;PMS_P2;Temp;Humidity;BMP_temperature;BMP_pressure;BME280_temperature;BME280_humidity;BME280_pressure;Samples;Min_cycle;Max_cycle;Signal;HPM_P1;HPM_P2
2022/06/22 00:01:43;;;;;;;;;;;25.90;99.90;;;;;;5109899;27;19908;-59
2022/06/22 00:04:14;;;;;;;;;;;25.90;99.90;;;;;;5109011;28;19918;-59
2022/06/22 00:06:41;;;;;;;;;;;25.80;99.90;;;;;;5106137;28;19908;-59
2022/06/22 00:09:17;;;;;;;;;;;25.80;99.90;;;;;;5109877;28;20006;-59
2022/06/22 00:11:44;;;;;;;;;;;25.80;99.90;;;;;;5100911;28;19908;-61
2022/06/22 00:14:16;;;;;;;;;;;25.70;99.90;;;;;;5102744;28;19920;-60
2022/06/22 00:16:48;;;;;;;;;;;25.70;99.90;;;;;;5108916;28;19908;-59
2022/06/22 00:19:31;;;;;;;;;;;25.70;99.90;;;;;;5102728;28;19929;-61
2022/06/22 00:21:57;;;;;;;;;;;25.80;99.90;;;;;;5108523;28;20462;-61
2022/06/22 00:24:22;;;;;;;;;;;25.80;99.90;;;;;;5101196;28;20381;-59
2022/06/22 00:26:56;;;;;;;;;;;25.70;99.90;;;;;;5100401;28;19912;-59
2022/06/22 00:29:23;;;;;;;;;;;25.80;99.90;;;;;;5100096;28;19976;-59
2022/06/22 00:31:49;;;;;;;;;;;25.60;99.90;;;;;;5111272;27;19908;-58
2022/06/22 00:34:16;;;;;;;;;;;25.60;99.90;;;;;;5111146;28;20456;-61
2022/06/22 00:36:47;;;;;;;;;;;25.60;99.90;;;;;;5106213;28;20238;-61
2022/06/22 00:39:24;;;;;;;;;;;25.60;99.90;;;;;;5098386;28;19943;-62
2022/06/22 00:41:53;;;;;;;;;;;25.50;99.90;;;;;;5092084;28;19954;-59
2022/06/22 00:44:19;;;;;;;;;;;25.30;99.90;;;;;;5107803;28;20027;-60
2022/06/22 00:46:50;;;;;;;;;;;24.90;99.90;;;;;;5105237;28;19947;-58
2022/06/22 00:49:18;;;;;;;;;;;24.60;99.90;;;;;;5105727;28;19912;-62
2022/06/22 00:51:43;;;;;;;;;;;24.40;99.90;;;;;;5107905;28;19908;-60
2022/06/22 00:54:14;;;;;;;;;;;24.40;99.90;;;;;;5108429;28;19914;-61
2022/06/22 00:56:47;;;;;;;;;;;24.50;99.90;;;;;;5100364;28;19946;-60
2022/06/22 00:59:13;;;;;;;;;;;24.50;99.90;;;;;;5111770;28;19915;-60
2022/06/22 01:01:38;;;;;;;;;;;24.60;99.90;;;;;;5112478;28;20304;-61
2022/06/22 01:04:19;;;;;;;;;;;24.70;99.90;;;;;;5113012;28;19988;-59
2022/06/22 01:06:44;;;;;;;;;;;24.70;99.90;;;;;;5102475;28;19919;-58
2022/06/22 01:09:13;;;;;;;;;;;24.80;99.90;;;;;;5110390;28;19914;-60
2022/06/22 01:14:30;;;;;;;;;;;24.60;99.90;;;;;;5104632;28;20431;-59
2022/06/22 01:16:57;;;;;;;;;;;24.60;99.90;;;;;;5107230;28;19957;-56
2022/06/22 01:19:30;;;;;;;;;;;24.60;99.90;;;;;;5112282;28;20481;-60
2022/06/22 01:22:10;;;;;;;;;;;24.50;99.90;;;;;;5110157;28;19923;-58
2022/06/22 01:24:38;;;;;;;;;;;24.60;99.90;;;;;;5100707;28;20353;-57
2022/06/22 01:27:19;;;;;;;;;;;24.60;99.90;;;;;;5105332;28;20086;-60
2022/06/22 01:29:52;;;;;;;;;;;24.60;99.90;;;;;;5111798;28;19904;-58
2022/06/22 01:32:23;;;;;;;;;;;24.50;99.90;;;;;;5109302;28;20003;-60
2022/06/22 01:34:50;;;;;;;;;;;24.40;99.90;;;;;;5107247;28;19965;-60
2022/06/22 01:37:18;;;;;;;;;;;24.30;99.90;;;;;;5106060;28;19908;-60
2022/06/22 01:39:44;;;;;;;;;;;24.20;99.90;;;;;;5106061;28;20369;-72
2022/06/22 01:42:18;;;;;;;;;;;24.10;99.90;;;;;;5114513;27;19999;-71
2022/06/22 01:45:04;;;;;;;;;;;23.80;99.90;;;;;;5109374;27;19967;-71
2022/06/22 01:47:35;;;;;;;;;;;23.70;99.90;;;;;;5108384;28;19916;-71
2022/06/22 01:50:13;;;;;;;;;;;23.50;99.90;;;;;;5106705;28;20292;-71
2022/06/22 01:52:45;;;;;;;;;;;23.50;99.90;;;;;;5107883;28;20473;-71
2022/06/22 01:55:15;;;;;;;;;;;23.60;99.90;;;;;;5114014;28;19921;-71
2022/06/22 01:57:46;;;;;;;;;;;23.60;99.90;;;;;;5112951;28;19908;-71
2022/06/22 02:00:14;;;;;;;;;;;23.70;99.90;;;;;;5116591;28;19943;-71
2022/06/22 02:02:43;;;;;;;;;;;23.70;99.90;;;;;;5112223;28;20334;-71
2022/06/22 02:05:15;;;;;;;;;;;23.70;99.90;;;;;;5114563;28;19965;-70
2022/06/22 02:07:44;;;;;;;;;;;23.80;99.90;;;;;;5103187;28;19916;-70
2022/06/22 02:10:21;;;;;;;;;;;23.80;99.90;;;;;;5109177;28;20545;-71
2022/06/22 02:13:09;;;;;;;;;;;23.70;99.90;;;;;;5104803;28;19947;-71
2022/06/22 02:15:38;;;;;;;;;;;23.70;99.90;;;;;;5099218;28;19908;-71
2022/06/22 02:18:05;;;;;;;;;;;23.60;99.90;;;;;;5110683;28;20039;-70
2022/06/22 02:20:33;;;;;;;;;;;23.50;99.90;;;;;;5109724;28;20289;-71
2022/06/22 02:23:01;;;;;;;;;;;23.60;99.90;;;;;;5103405;28;19956;-71
2022/06/22 02:25:29;;;;;;;;;;;23.70;99.90;;;;;;5104843;28;19990;-71
2022/06/22 02:27:54;;;;;;;;;;;23.70;99.90;;;;;;5109980;28;19915;-71
2022/06/22 02:30:20;;;;;;;;;;;23.70;99.90;;;;;;5108783;28;20293;-70
2022/06/22 02:32:45;;;;;;;;;;;23.60;99.90;;;;;;5109605;28;19907;-70
2022/06/22 02:35:13;;;;;;;;;;;23.60;99.90;;;;;;5110003;28;19916;-69
2022/06/22 02:37:44;;;;;;;;;;;23.60;99.90;;;;;;5110276;28;19955;-70
2022/06/22 02:40:14;;;;;;;;;;;23.70;99.90;;;;;;5105164;28;20006;-71
2022/06/22 02:45:24;;;;;;;;;;;23.70;99.90;;;;;;5106370;28;19994;-71
2022/06/22 02:47:58;;;;;;;;;;;23.60;99.90;;;;;;5105831;28;19943;-70
2022/06/22 02:50:29;;;;;;;;;;;23.50;99.90;;;;;;5113735;28;19918;-71
2022/06/22 02:52:57;;;;;;;;;;;23.50;99.90;;;;;;5112616;28;19930;-71
2022/06/22 02:55:24;;;;;;;;;;;23.50;99.90;;;;;;5108083;28;19907;-72
2022/06/22 02:57:53;;;;;;;;;;;23.50;99.90;;;;;;5108729;28;19907;-71
2022/06/22 03:00:20;;;;;;;;;;;23.50;99.90;;;;;;5114821;28;19934;-71
2022/06/22 03:02:46;;;;;;;;;;;23.50;99.90;;;;;;5111780;28;19908;-71
2022/06/22 03:05:12;;;;;;;;;;;23.60;99.90;;;;;;5116631;28;20396;-71
2022/06/22 03:07:39;;;;;;;;;;;23.50;99.90;;;;;;5109590;28;19926;-70
2022/06/22 03:10:06;;;;;;;;;;;23.50;99.90;;;;;;5117505;28;19959;-71
2022/06/22 03:12:32;;;;;;;;;;;23.50;99.90;;;;;;5108700;28;19922;-69
2022/06/22 03:15:00;;;;;;;;;;;23.50;99.90;;;;;;5107934;28;19998;-71
2022/06/22 03:17:44;;;;;;;;;;;23.50;99.90;;;;;;5104187;28;19954;-70
2022/06/22 03:20:16;;;;;;;;;;;23.50;99.90;;;;;;5111002;28;19916;-71
2022/06/22 03:22:43;;;;;;;;;;;23.50;99.90;;;;;;5114159;27;19943;-71
2022/06/22 03:25:21;;;;;;;;;;;23.60;99.90;;;;;;5113196;28;19916;-72
2022/06/22 03:27:49;;;;;;;;;;;23.60;99.90;;;;;;5109682;28;20278;-71
2022/06/22 03:30:22;;;;;;;;;;;23.70;99.90;;;;;;5105007;28;20322;-71
2022/06/22 03:33:10;;;;;;;;;;;23.70;99.90;;;;;;5108503;28;19907;-71
2022/06/22 03:35:38;;;;;;;;;;;23.50;99.90;;;;;;5110078;28;19918;-72
2022/06/22 03:38:07;;;;;;;;;;;23.30;99.90;;;;;;5113089;28;19907;-71
2022/06/22 03:40:37;;;;;;;;;;;23.20;99.90;;;;;;5109790;28;19920;-70
2022/06/22 03:43:09;;;;;;;;;;;23.00;99.90;;;;;;5105805;28;19908;-72
2022/06/22 03:45:38;;;;;;;;;;;22.90;99.90;;;;;;5113357;28;19903;-70
2022/06/22 03:48:08;;;;;;;;;;;23.00;99.90;;;;;;5106282;28;19915;-73
2022/06/22 03:50:42;;;;;;;;;;;23.10;99.90;;;;;;5109792;28;19908;-70
2022/06/22 03:53:18;;;;;;;;;;;23.20;99.90;;;;;;5104626;28;19904;-70
2022/06/22 03:55:46;;;;;;;;;;;23.20;99.90;;;;;;5110936;28;19914;-71
2022/06/22 03:58:12;;;;;;;;;;;23.40;99.90;;;;;;5109370;28;19908;-72
2022/06/22 04:00:39;;;;;;;;;;;23.50;99.90;;;;;;5107968;28;19969;-71
2022/06/22 04:03:05;;;;;;;;;;;23.50;99.90;;;;;;5105767;28;19926;-72
2022/06/22 04:05:39;;;;;;;;;;;23.50;99.90;;;;;;5110308;28;20373;-71
2022/06/22 04:08:04;;;;;;;;;;;23.50;99.90;;;;;;5111710;27;19949;-71
2022/06/22 04:10:53;;;;;;;;;;;23.50;99.90;;;;;;5104147;28;19915;-71
2022/06/22 04:13:24;;;;;;;;;;;23.50;99.90;;;;;;5092658;28;19908;-71
2022/06/22 04:15:59;;;;;;;;;;;23.50;99.90;;;;;;5107180;28;19911;-69
2022/06/22 04:18:31;;;;;;;;;;;23.50;99.90;;;;;;5109129;28;19977;-71
2022/06/22 04:21:04;;;;;;;;;;;23.50;99.90;;;;;;5102700;28;20281;-70
2022/06/22 04:23:30;;;;;;;;;;;23.50;99.90;;;;;;5100500;28;19955;-71
2022/06/22 04:25:58;;;;;;;;;;;23.60;99.90;;;;;;5106855;28;19914;-70
2022/06/22 04:28:25;;;;;;;;;;;23.70;99.90;;;;;;5101403;28;19908;-71
2022/06/22 04:30:52;;;;;;;;;;;23.80;99.90;;;;;;5110812;28;19995;-71
2022/06/22 04:33:22;;;;;;;;;;;23.80;99.90;;;;;;5108729;28;20006;-71
2022/06/22 04:36:08;;;;;;;;;;;23.80;99.90;;;;;;5107616;28;19915;-71
2022/06/22 04:38:52;;;;;;;;;;;23.90;99.90;;;;;;5102153;28;19919;-70
2022/06/22 04:41:24;;;;;;;;;;;24.00;99.90;;;;;;5106333;28;19916;-70
2022/06/22 04:43:50;;;;;;;;;;;24.10;99.90;;;;;;5106742;28;20448;-70
2022/06/22 04:46:20;;;;;;;;;;;24.10;99.90;;;;;;5109483;28;19939;-70
2022/06/22 04:48:47;;;;;;;;;;;24.10;99.90;;;;;;5104117;28;19904;-71
2022/06/22 04:51:27;;;;;;;;;;;24.10;99.90;;;;;;5109038;28;19914;-71
2022/06/22 04:53:55;;;;;;;;;;;24.20;99.90;;;;;;5114934;28;20196;-69
2022/06/22 04:56:28;;;;;;;;;;;24.10;99.90;;;;;;5114670;28;19942;-71
2022/06/22 04:58:54;;;;;;;;;;;24.20;99.90;;;;;;5113167;28;20329;-71
2022/06/22 05:01:26;;;;;;;;;;;24.40;99.90;;;;;;5112553;28;20266;-70
2022/06/22 05:03:54;;;;;;;;;;;24.40;99.90;;;;;;5109571;28;19912;-70
2022/06/22 05:06:24;;;;;;;;;;;24.50;99.90;;;;;;5109710;28;19907;-71
2022/06/22 05:09:06;;;;;;;;;;;24.60;99.90;;;;;;5106115;28;19908;-70
2022/06/22 05:11:51;;;;;;;;;;;24.70;99.90;;;;;;5106833;28;19915;-71
2022/06/22 05:14:20;;;;;;;;;;;24.80;99.90;;;;;;5104072;28;19904;-70
2022/06/22 05:16:52;;;;;;;;;;;24.80;99.90;;;;;;5109085;28;19993;-70
2022/06/22 05:19:17;;;;;;;;;;;24.90;99.90;;;;;;5108054;28;19988;-70
2022/06/22 05:21:45;;;;;;;;;;;24.90;99.90;;;;;;5109156;28;19996;-70
2022/06/22 05:24:24;;;;;;;;;;;25.00;99.90;;;;;;5109279;28;19914;-69
2022/06/22 05:26:50;;;;;;;;;;;25.10;99.90;;;;;;5105322;28;20357;-70
2022/06/22 05:29:18;;;;;;;;;;;25.20;99.90;;;;;;5107597;28;19907;-70
2022/06/22 05:31:52;;;;;;;;;;;25.30;99.90;;;;;;5109012;28;19994;-70
2022/06/22 05:34:22;;;;;;;;;;;25.40;99.90;;;;;;5109094;28;20284;-71
2022/06/22 05:36:49;;;;;;;;;;;25.50;99.90;;;;;;5105603;28;19943;-70
2022/06/22 05:39:14;;;;;;;;;;;25.60;99.90;;;;;;5103478;28;19908;-69
2022/06/22 05:41:42;;;;;;;;;;;25.50;99.90;;;;;;5105893;28;19949;-71
2022/06/22 05:44:11;;;;;;;;;;;25.30;99.90;;;;;;5108259;28;19914;-72
2022/06/22 05:46:37;;;;;;;;;;;25.30;99.90;;;;;;5113066;28;19957;-72
2022/06/22 05:49:04;;;;;;;;;;;25.40;99.90;;;;;;5113359;28;19907;-72
2022/06/22 05:51:30;;;;;;;;;;;25.50;99.90;;;;;;5112956;28;19998;-71
2022/06/22 05:53:58;;;;;;;;;;;25.70;99.90;;;;;;5111879;28;19968;-72
2022/06/22 05:56:31;;;;;;;;;;;25.80;99.90;;;;;;5112653;28;20280;-72
2022/06/22 05:59:07;;;;;;;;;;;25.90;99.90;;;;;;5114032;28;19910;-70
2022/06/22 06:01:36;;;;;;;;;;;25.90;99.90;;;;;;5113046;28;20411;-72
2022/06/22 06:04:10;;;;;;;;;;;26.00;99.90;;;;;;5108511;28;19911;-71
2022/06/22 06:06:39;;;;;;;;;;;26.20;99.90;;;;;;5112597;28;19904;-70
2022/06/22 06:09:06;;;;;;;;;;;26.20;99.90;;;;;;5112525;28;19907;-70
2022/06/22 06:11:34;;;;;;;;;;;26.20;99.90;;;;;;5109233;28;19947;-71
2022/06/22 06:14:02;;;;;;;;;;;26.30;99.90;;;;;;5107912;28;20065;-70
2022/06/22 06:16:32;;;;;;;;;;;26.40;99.90;;;;;;5113650;28;20003;-71
2022/06/22 06:19:00;;;;;;;;;;;26.50;99.90;;;;;;5112450;28;20052;-68
2022/06/22 06:21:28;;;;;;;;;;;26.70;99.90;;;;;;5112390;28;19914;-66
2022/06/22 06:23:56;;;;;;;;;;;26.90;99.90;;;;;;5109031;28;19911;-67
2022/06/22 06:29:35;;;;;;;;;;;27.20;99.90;;;;;;5104292;28;19933;-68
2022/06/22 06:32:13;;;;;;;;;;;27.30;99.90;;;;;;5111634;28;19907;-69
2022/06/22 06:34:42;;;;;;;;;;;27.50;99.90;;;;;;5107269;27;19956;-66
2022/06/22 06:37:20;;;;;;;;;;;27.60;99.90;;;;;;5111017;28;19919;-67
2022/06/22 06:39:47;;;;;;;;;;;27.70;99.90;;;;;;5109550;28;19908;-66
2022/06/22 06:42:21;;;;;;;;;;;27.90;99.90;;;;;;5110585;28;19903;-67
2022/06/22 06:44:49;;;;;;;;;;;28.00;99.90;;;;;;5109541;28;20433;-66
2022/06/22 06:47:18;;;;;;;;;;;28.20;99.90;;;;;;5112335;28;19925;-67
2022/06/22 06:49:44;;;;;;;;;;;28.30;99.90;;;;;;5111039;28;19965;-65
2022/06/22 06:52:28;;;;;;;;;;;28.10;99.90;;;;;;5112352;28;19907;-67
2022/06/22 06:55:17;;;;;;;;;;;27.90;99.90;;;;;;5111948;28;19935;-67
2022/06/22 06:57:55;;;;;;;;;;;27.70;99.90;;;;;;5078596;28;19908;-69
2022/06/22 07:00:21;;;;;;;;;;;27.50;99.90;;;;;;5108594;28;20015;-67
2022/06/22 07:02:47;;;;;;;;;;;27.30;99.90;;;;;;5109705;28;19908;-69
2022/06/22 07:05:14;;;;;;;;;;;27.10;99.90;;;;;;5108910;28;20291;-65
2022/06/22 07:08:09;;;;;;;;;;;27.00;99.90;;;;;;5111538;28;19907;-69
2022/06/22 07:10:38;;;;;;;;;;;27.00;99.90;;;;;;5092904;28;19933;-68
2022/06/22 07:13:15;;;;;;;;;;;27.00;99.90;;;;;;5107652;28;19908;-68
2022/06/22 07:15:43;;;;;;;;;;;27.10;99.90;;;;;;5102140;28;19916;-68
2022/06/22 07:18:15;;;;;;;;;;;27.10;99.90;;;;;;5107556;28;19912;-68
2022/06/22 07:20:44;;;;;;;;;;;27.10;99.90;;;;;;5112018;28;19911;-66
2022/06/22 07:23:19;;;;;;;;;;;27.10;99.90;;;;;;5110766;28;19908;-67
2022/06/22 07:25:48;;;;;;;;;;;27.40;99.90;;;;;;5110964;28;19973;-68
2022/06/22 07:28:17;;;;;;;;;;;27.50;99.90;;;;;;5105113;28;19907;-68
2022/06/22 07:30:45;;;;;;;;;;;27.60;99.90;;;;;;5110453;28;19987;-67
2022/06/22 07:33:27;;;;;;;;;;;27.60;99.90;;;;;;5110629;28;20341;-60
2022/06/22 07:35:55;;;;;;;;;;;27.40;99.90;;;;;;5110599;28;19998;-61
2022/06/22 07:38:27;;;;;;;;;;;27.60;99.90;;;;;;5104590;28;19916;-60
2022/06/22 07:43:37;;;;;;;;;;;27.80;99.90;;;;;;5109250;28;19961;-61
2022/06/22 07:46:04;;;;;;;;;;;28.00;99.90;;;;;;5104549;28;19916;-62
2022/06/22 07:48:31;;;;;;;;;;;28.10;99.90;;;;;;5106100;28;20010;-60
2022/06/22 07:50:58;;;;;;;;;;;28.20;99.90;;;;;;5110117;28;19904;-61
2022/06/22 07:53:33;;;;;;;;;;;27.90;99.90;;;;;;5110538;28;20410;-61
2022/06/22 07:56:08;;;;;;;;;;;27.50;99.90;;;;;;5108399;28;19911;-60
2022/06/22 07:58:48;;;;;;;;;;;27.20;99.90;;;;;;5109600;28;20408;-60
2022/06/22 08:01:19;;;;;;;;;;;27.10;99.90;;;;;;5108928;28;21969;-60
2022/06/22 08:03:46;;;;;;;;;;;26.70;99.90;;;;;;5110579;28;19961;-60
2022/06/22 08:06:15;;;;;;;;;;;26.50;99.90;;;;;;5108707;28;20522;-62
2022/06/22 08:08:52;;;;;;;;;;;26.40;99.90;;;;;;5102096;28;19999;-60
2022/06/22 08:11:24;;;;;;;;;;;26.40;99.90;;;;;;5109867;28;19903;-61
2022/06/22 08:13:56;;;;;;;;;;;26.60;99.90;;;;;;5111836;28;19904;-61
2022/06/22 08:16:31;;;;;;;;;;;26.60;99.90;;;;;;5107978;28;19916;-60
2022/06/22 08:18:57;;;;;;;;;;;26.70;99.90;;;;;;5108946;28;20325;-61
2022/06/22 08:21:23;;;;;;;;;;;26.90;99.90;;;;;;5104373;28;19907;-60
2022/06/22 08:23:49;;;;;;;;;;;27.10;99.90;;;;;;5108469;28;19908;-60
2022/06/22 08:26:18;;;;;;;;;;;27.10;99.90;;;;;;5110051;28;19911;-61
2022/06/22 08:28:44;;;;;;;;;;;27.20;99.90;;;;;;5109866;28;19904;-60
2022/06/22 08:31:10;;;;;;;;;;;27.20;99.90;;;;;;5109606;28;20045;-60
2022/06/22 08:33:36;;;;;;;;;;;27.20;99.90;;;;;;5108030;28;19912;-60
2022/06/22 08:36:08;;;;;;;;;;;27.00;99.90;;;;;;5109538;28;19908;-60
2022/06/22 08:38:38;;;;;;;;;;;26.70;99.90;;;;;;5109672;28;19904;-61
2022/06/22 08:41:04;;;;;;;;;;;26.60;99.90;;;;;;5111361;28;19908;-60
2022/06/22 08:43:44;;;;;;;;;;;26.70;99.90;;;;;;5111352;28;19919;-60
2022/06/22 08:46:22;;;;;;;;;;;26.60;99.90;;;;;;5107855;28;20011;-60
2022/06/22 08:49:03;;;;;;;;;;;26.70;99.90;;;;;;5110576;28;19990;-59
2022/06/22 08:51:29;;;;;;;;;;;26.60;99.90;;;;;;5112556;28;20005;-61
2022/06/22 08:54:04;;;;;;;;;;;26.50;99.90;;;;;;5112476;28;19904;-59
2022/06/22 08:56:36;;;;;;;;;;;26.40;99.90;;;;;;5112017;28;20002;-60
2022/06/22 08:59:01;;;;;;;;;;;26.50;99.90;;;;;;5105802;28;19961;-59
2022/06/22 09:01:27;;;;;;;;;;;26.40;99.90;;;;;;5109634;28;19907;-59
2022/06/22 09:04:11;;;;;;;;;;;26.60;99.90;;;;;;5110832;28;19907;-59
2022/06/22 09:06:36;;;;;;;;;;;26.70;99.90;;;;;;5109601;28;19911;-62
2022/06/22 09:09:02;;;;;;;;;;;26.80;99.90;;;;;;5109191;28;19904;-58
2022/06/22 09:11:33;;;;;;;;;;;26.90;99.90;;;;;;5106643;28;19903;-59
2022/06/22 09:14:11;;;;;;;;;;;27.00;99.90;;;;;;5105900;28;19956;-59
2022/06/22 09:16:52;;;;;;;;;;;27.10;99.90;;;;;;5107094;28;20361;-59
2022/06/22 09:19:18;;;;;;;;;;;27.00;99.90;;;;;;5108400;28;19907;-58
2022/06/22 09:21:43;;;;;;;;;;;27.00;99.90;;;;;;5108544;28;19961;-58
2022/06/22 09:24:32;;;;;;;;;;;27.30;99.90;;;;;;5101902;28;19981;-61
2022/06/22 09:27:10;;;;;;;;;;;27.60;99.90;;;;;;5105295;27;19953;-62
2022/06/22 09:29:39;;;;;;;;;;;28.00;99.90;;;;;;5109261;28;20357;-60
2022/06/22 09:32:26;;;;;;;;;;;28.10;99.90;;;;;;5112082;27;19954;-58
2022/06/22 09:34:57;;;;;;;;;;;28.00;99.90;;;;;;5114149;28;19917;-59
2022/06/22 09:37:34;;;;;;;;;;;27.90;99.90;;;;;;5113221;27;19915;-58
2022/06/22 09:40:00;;;;;;;;;;;27.80;99.90;;;;;;5110732;28;19911;-58
2022/06/22 09:42:44;;;;;;;;;;;27.60;99.90;;;;;;5112537;28;19907;-59
2022/06/22 09:45:22;;;;;;;;;;;27.50;99.90;;;;;;5109454;28;19936;-60
2022/06/22 09:48:13;;;;;;;;;;;27.60;99.90;;;;;;5111017;28;20358;-59
2022/06/22 09:50:48;;;;;;;;;;;27.60;99.90;;;;;;5088800;28;19944;-59
2022/06/22 09:53:20;;;;;;;;;;;27.70;99.90;;;;;;5112904;28;19981;-59
2022/06/22 09:56:19;;;;;;;;;;;27.60;99.90;;;;;;5114162;28;19927;-56
2022/06/22 09:58:52;;;;;;;;;;;27.50;99.90;;;;;;5110130;28;19950;-60
2022/06/22 10:01:35;;;;;;;;;;;27.30;99.90;;;;;;5111422;28;20313;-59
2022/06/22 10:04:35;;;;;;;;;;;27.20;99.90;;;;;;5111248;28;19915;-59
2022/06/22 10:07:18;;;;;;;;;;;27.00;99.90;;;;;;5113075;28;19903;-58
2022/06/22 10:09:58;;;;;;;;;;;26.60;99.90;;;;;;5113811;28;19910;-58
2022/06/22 10:12:43;;;;;;;;;;;26.50;99.90;;;;;;5114278;28;20281;-59
2022/06/22 10:15:30;;;;;;;;;;;26.30;99.90;;;;;;5103292;27;19908;-69
2022/06/22 10:17:58;;;;;;;;;;;26.50;99.90;;;;;;5103823;28;19908;-68
2022/06/22 10:20:36;;;;;;;;;;;26.70;99.90;;;;;;5111977;28;19937;-68
2022/06/22 10:23:02;;;;;;;;;;;26.70;99.90;;;;;;5112578;28;19911;-69
2022/06/22 10:25:42;;;;;;;;;;;26.50;99.90;;;;;;5109642;28;19908;-69
2022/06/22 10:28:11;;;;;;;;;;;26.60;99.90;;;;;;5110283;28;20266;-69
2022/06/22 10:30:44;;;;;;;;;;;26.60;99.90;;;;;;5112810;28;19910;-68
2022/06/22 10:33:10;;;;;;;;;;;26.60;99.90;;;;;;5112019;28;20266;-69
2022/06/22 10:35:42;;;;;;;;;;;26.60;99.90;;;;;;5112186;28;19953;-69
2022/06/22 10:38:14;;;;;;;;;;;26.60;99.90;;;;;;5106198;28;19915;-69
2022/06/22 10:47:18;;;;;;;;;;;26.60;99.90;;;;;;5048574;28;20022;-69
2022/06/22 10:49:46;;;;;;;;;;;26.50;99.90;;;;;;5093170;28;19914;-68
2022/06/22 10:52:12;;;;;;;;;;;26.30;99.90;;;;;;5108145;28;19908;-69
2022/06/22 10:54:41;;;;;;;;;;;26.00;99.90;;;;;;5108452;28;19903;-69
2022/06/22 10:57:20;;;;;;;;;;;26.10;99.90;;;;;;5111569;28;19917;-69
2022/06/22 10:59:54;;;;;;;;;;;26.20;99.90;;;;;;5111857;28;19907;-67
2022/06/22 11:02:20;;;;;;;;;;;26.30;99.90;;;;;;5104809;28;19923;-67
2022/06/22 11:04:56;;;;;;;;;;;26.50;99.90;;;;;;5105485;28;19923;-68
2022/06/22 11:07:27;;;;;;;;;;;26.60;99.90;;;;;;5113179;28;20060;-68
2022/06/22 11:10:11;;;;;;;;;;;26.70;99.90;;;;;;5109050;28;19916;-68
2022/06/22 11:12:48;;;;;;;;;;;26.80;99.90;;;;;;5101482;28;19923;-67
2022/06/22 11:15:20;;;;;;;;;;;26.90;99.90;;;;;;5103468;28;19919;-67
2022/06/22 11:17:45;;;;;;;;;;;27.10;99.90;;;;;;5108470;28;20056;-67
2022/06/22 11:20:17;;;;;;;;;;;27.20;99.90;;;;;;5105247;28;20396;-68
2022/06/22 11:22:46;;;;;;;;;;;27.30;99.90;;;;;;5105374;28;19908;-68
2022/06/22 11:30:48;;;;;;;;;;;27.20;99.90;;;;;;5106259;28;19919;-69
2022/06/22 11:31:04;;;;;;;;;;;27.30;99.90;;;;;;5110652;28;19915;-69
2022/06/22 11:33:45;;;;;;;;;;;27.50;99.90;;;;;;5108938;28;19923;-69
2022/06/22 11:36:29;;;;;;;;;;;27.60;99.90;;;;;;5105575;28;19914;-70
2022/06/22 11:39:10;;;;;;;;;;;27.90;99.90;;;;;;5112102;28;19904;-69
2022/06/22 11:41:48;;;;;;;;;;;28.40;99.90;;;;;;5105479;28;20353;-69
2022/06/22 11:44:17;;;;;;;;;;;28.90;99.90;;;;;;5104529;28;19911;-68
2022/06/22 11:46:50;;;;;;;;;;;29.50;99.90;;;;;;5104512;28;19904;-70
2022/06/22 11:49:22;;;;;;;;;;;29.90;99.90;;;;;;5110551;28;20006;-69
2022/06/22 11:52:03;;;;;;;;;;;30.20;99.90;;;;;;5112164;28;19990;-69
2022/06/22 11:54:36;;;;;;;;;;;30.30;99.90;;;;;;5104875;28;19979;-68
2022/06/22 11:57:13;;;;;;;;;;;30.50;99.90;;;;;;5105080;28;20376;-68
2022/06/22 12:00:05;;;;;;;;;;;30.80;99.90;;;;;;5111153;28;20273;-69
2022/06/22 12:02:37;;;;;;;;;;;31.10;99.90;;;;;;5105389;28;20350;-69
2022/06/22 12:05:04;;;;;;;;;;;31.50;99.90;;;;;;5111902;28;20270;-70
2022/06/22 12:07:45;;;;;;;;;;;31.90;99.90;;;;;;5108943;28;20080;-68
2022/06/22 12:10:23;;;;;;;;;;;32.20;99.90;;;;;;5107474;28;20309;-69
2022/06/22 12:13:05;;;;;;;;;;;32.50;99.90;;;;;;5110155;28;20473;-68
2022/06/22 12:15:55;;;;;;;;;;;32.60;99.90;;;;;;5111457;28;19908;-69
2022/06/22 12:18:47;;;;;;;;;;;32.70;99.90;;;;;;5108345;28;20322;-69
2022/06/22 12:21:37;;;;;;;;;;;32.30;99.90;;;;;;5111012;28;20281;-69
2022/06/22 12:24:28;;;;;;;;;;;31.90;99.90;;;;;;5103566;28;19908;-68
2022/06/22 12:27:21;;;;;;;;;;;32.00;99.90;;;;;;5107633;28;20341;-68
2022/06/22 12:29:47;;;;;;;;;;;31.90;99.90;;;;;;5106529;28;19954;-67
2022/06/22 12:32:24;;;;;;;;;;;31.60;99.90;;;;;;5111384;28;19939;-68
2022/06/22 12:34:50;;;;;;;;;;;31.40;99.90;;;;;;5111591;28;19962;-68
2022/06/22 12:37:25;;;;;;;;;;;31.20;99.90;;;;;;5105989;28;20174;-69
2022/06/22 12:40:09;;;;;;;;;;;30.80;99.90;;;;;;5110078;28;20258;-68
2022/06/22 12:42:35;;;;;;;;;;;30.50;99.90;;;;;;5109817;28;19903;-67
2022/06/22 12:45:19;;;;;;;;;;;30.80;99.90;;;;;;5105084;28;19964;-68
2022/06/22 12:48:03;;;;;;;;;;;31.20;99.90;;;;;;5110714;28;20384;-68
2022/06/22 12:50:47;;;;;;;;;;;31.60;99.90;;;;;;5108500;28;19944;-67
2022/06/22 12:53:19;;;;;;;;;;;31.70;99.90;;;;;;5110572;28;19908;-68
2022/06/22 12:55:47;;;;;;;;;;;32.00;99.90;;;;;;5114964;28;19914;-68
2022/06/22 12:58:19;;;;;;;;;;;32.20;99.90;;;;;;5114696;28;20337;-68
2022/06/22 13:00:44;;;;;;;;;;;32.00;99.90;;;;;;5112807;28;19947;-68
2022/06/22 13:03:22;;;;;;;;;;;31.90;99.90;;;;;;5115482;27;20394;-68
2022/06/22 13:05:48;;;;;;;;;;;31.90;99.90;;;;;;5110022;28;19916;-68
2022/06/22 13:08:20;;;;;;;;;;;32.00;99.90;;;;;;5103686;28;19907;-67
2022/06/22 13:10:47;;;;;;;;;;;31.90;99.90;;;;;;5111723;28;19904;-68
2022/06/22 13:13:16;;;;;;;;;;;32.10;99.90;;;;;;5112058;28;19914;-68
2022/06/22 13:15:45;;;;;;;;;;;31.80;99.90;;;;;;5113494;28;19904;-68
2022/06/22 13:18:11;;;;;;;;;;;31.60;99.90;;;;;;5112807;28;19914;-69
2022/06/22 13:20:39;;;;;;;;;;;31.70;99.90;;;;;;5114540;28;19931;-68
2022/06/22 13:23:04;;;;;;;;;;;31.80;99.90;;;;;;5113663;28;19908;-68
2022/06/22 13:25:46;;;;;;;;;;;31.80;99.90;;;;;;5105719;28;20006;-68
2022/06/22 13:28:21;;;;;;;;;;;31.70;99.90;;;;;;5111567;28;19935;-68
2022/06/22 13:30:58;;;;;;;;;;;31.50;99.90;;;;;;5112696;28;19908;-69
2022/06/22 13:33:28;;;;;;;;;;;31.50;99.90;;;;;;5111790;28;19914;-69
2022/06/22 13:36:17;;;;;;;;;;;31.50;99.90;;;;;;5114242;28;20011;-69
2022/06/22 13:38:55;;;;;;;;;;;31.20;99.90;;;;;;5112789;28;19912;-69
2022/06/22 13:41:30;;;;;;;;;;;31.20;99.90;;;;;;5112400;28;19922;-68
2022/06/22 13:43:58;;;;;;;;;;;31.40;99.90;;;;;;5110741;28;19923;-69
2022/06/22 13:46:33;;;;;;;;;;;31.60;99.90;;;;;;5113428;28;19929;-69
2022/06/22 13:48:59;;;;;;;;;;;31.50;99.90;;;;;;5111131;28;19930;-70
2022/06/22 13:51:34;;;;;;;;;;;30.90;99.90;;;;;;5114142;28;20361;-69
2022/06/22 13:54:13;;;;;;;;;;;30.40;99.90;;;;;;5114419;28;19912;-70
2022/06/22 13:56:49;;;;;;;;;;;30.00;99.90;;;;;;5111144;28;19919;-70
2022/06/22 13:59:30;;;;;;;;;;;29.90;99.90;;;;;;5113735;28;19904;-68
2022/06/22 14:02:21;;;;;;;;;;;29.70;99.90;;;;;;5109611;28;20511;-70
2022/06/22 14:04:56;;;;;;;;;;;29.70;99.90;;;;;;5098087;28;20230;-71
2022/06/22 14:07:48;;;;;;;;;;;29.90;99.90;;;;;;5114056;28;19911;-70
2022/06/22 14:10:43;;;;;;;;;;;30.00;99.90;;;;;;5075561;28;19953;-69
2022/06/22 14:13:30;;;;;;;;;;;30.10;99.90;;;;;;5099151;28;19911;-69
2022/06/22 14:15:59;;;;;;;;;;;29.80;99.90;;;;;;5107090;28;19907;-69
2022/06/22 14:18:35;;;;;;;;;;;29.50;99.90;;;;;;5112171;28;20313;-70
2022/06/22 14:21:10;;;;;;;;;;;29.30;99.90;;;;;;5113907;28;19910;-70
2022/06/22 14:23:37;;;;;;;;;;;29.50;99.90;;;;;;5113926;28;19903;-68
2022/06/22 14:26:06;;;;;;;;;;;29.10;99.90;;;;;;5113518;28;19983;-69
2022/06/22 14:28:31;;;;;;;;;;;29.20;99.90;;;;;;5112885;28;19907;-68
2022/06/22 14:31:00;;;;;;;;;;;29.20;99.90;;;;;;5113322;28;20037;-70
2022/06/22 14:33:32;;;;;;;;;;;29.30;99.90;;;;;;5113538;28;19923;-70
2022/06/22 14:36:03;;;;;;;;;;;29.20;99.90;;;;;;5113611;28;19923;-68
2022/06/22 14:38:39;;;;;;;;;;;29.40;99.90;;;;;;5096030;28;19912;-70
2022/06/22 14:41:08;;;;;;;;;;;29.40;99.90;;;;;;5111020;28;19911;-69
2022/06/22 14:43:46;;;;;;;;;;;29.40;99.90;;;;;;5109495;28;19991;-69
2022/06/22 14:46:19;;;;;;;;;;;29.20;99.90;;;;;;5112004;28;20253;-71
2022/06/22 14:48:49;;;;;;;;;;;29.10;99.90;;;;;;5106770;28;19915;-71
2022/06/22 14:51:17;;;;;;;;;;;29.00;99.90;;;;;;5113310;28;19949;-71
2022/06/22 14:53:52;;;;;;;;;;;28.90;99.90;;;;;;5112518;28;19904;-72
2022/06/22 14:56:20;;;;;;;;;;;28.70;99.90;;;;;;5118132;28;19915;-72
2022/06/22 14:58:49;;;;;;;;;;;28.50;99.90;;;;;;5123690;28;19970;-70
2022/06/22 15:01:21;;;;;;;;;;;28.50;99.90;;;;;;5118932;28;19911;-69
2022/06/22 15:04:06;;;;;;;;;;;28.60;99.90;;;;;;5120368;28;19912;-71
2022/06/22 15:06:54;;;;;;;;;;;28.90;99.90;;;;;;5121560;28;19903;-72
2022/06/22 15:09:19;;;;;;;;;;;29.10;99.90;;;;;;5117389;28;19912;-71